createdAt,value
2023-05-06T00:02:34.426Z,99716.04
2023-05-06T00:05:37.292Z,99714.73
2023-05-06T00:08:40.048Z,99716.94
2023-05-06T00:11:42.917Z,99721.41
2023-05-06T00:14:45.665Z,99723.27
2023-05-06T00:17:48.422Z,99720.91
2023-05-06T00:20:51.205Z,99722.31
2023-05-06T00:23:53.951Z,99713.90
2023-05-06T00:26:56.850Z,99722.08
2023-05-06T00:29:59.627Z,99726.85
2023-05-06T00:33:03.459Z,99726.08
2023-05-06T00:36:06.724Z,99726.48
2023-05-06T00:39:10.031Z,99725.45
2023-05-06T00:42:13.116Z,99724.45
2023-05-06T00:45:16.039Z,99724.33
2023-05-06T00:48:18.938Z,99721.10
2023-05-06T00:51:23.009Z,99721.17
2023-05-06T00:54:26.822Z,99719.31
2023-05-06T00:57:29.787Z,99718.48
2023-05-06T01:00:32.981Z,99720.60
2023-05-06T01:03:35.866Z,99720.11
2023-05-06T01:06:50.743Z,99716.86
2023-05-06T01:10:13.655Z,99718.88
2023-05-06T01:13:46.356Z,99718.08
2023-05-06T01:16:54.635Z,99720.86
2023-05-06T01:20:01.450Z,99721.78
2023-05-06T01:23:09.209Z,99718.98
2023-05-06T01:26:11.961Z,99716.44
2023-05-06T01:29:16.146Z,99716.41
2023-05-06T01:32:50.520Z,99712.23
2023-05-06T01:36:13.219Z,99706.19
2023-05-06T01:39:18.912Z,99704.05
2023-05-06T01:42:24.557Z,99705.42
2023-05-06T01:45:31.707Z,99701.06
2023-05-06T01:48:37.497Z,99696.24
2023-05-06T01:51:40.292Z,99687.69
2023-05-06T01:54:44.199Z,99687.42
2023-05-06T01:57:46.942Z,99690.92
2023-05-06T02:00:49.777Z,99691.30
2023-05-06T02:03:52.742Z,99691.69
2023-05-06T02:06:55.939Z,99695.50
2023-05-06T02:09:58.874Z,99696.21
2023-05-06T02:13:01.835Z,99696.69
2023-05-06T02:16:05.576Z,99696.58
2023-05-06T02:19:08.822Z,99701.59
2023-05-06T02:22:11.629Z,99698.05
2023-05-06T02:25:14.507Z,99700.70
2023-05-06T02:28:17.348Z,99702.30
2023-05-06T02:31:20.511Z,99706.35
2023-05-06T02:34:24.108Z,99709.48
2023-05-06T02:37:26.836Z,99700.65
2023-05-06T02:40:29.744Z,99698.77
2023-05-06T02:43:32.602Z,99693.85
2023-05-06T02:46:35.336Z,99694.62
2023-05-06T02:49:38.226Z,99698.91
2023-05-06T02:52:41.006Z,99692.98
2023-05-06T02:55:43.827Z,99689.64
2023-05-06T02:58:46.525Z,99693.36
2023-05-06T03:01:49.405Z,99690.35
2023-05-06T03:04:52.184Z,99684.35
2023-05-06T03:07:55.350Z,99683.81
2023-05-06T03:10:58.134Z,99683.91
2023-05-06T03:14:00.967Z,99679.89
2023-05-06T03:17:04.266Z,99680.77
2023-05-06T03:20:08.723Z,99682.20
2023-05-06T03:23:13.277Z,99675.92
2023-05-06T03:26:16.056Z,99669.50
2023-05-06T03:29:22.498Z,99671.80
2023-05-06T03:32:25.646Z,99662.86
2023-05-06T03:35:29.211Z,99656.32
2023-05-06T03:38:33.951Z,99661.00
2023-05-06T03:41:38.716Z,99654.36
2023-05-06T03:44:42.682Z,99655.29
2023-05-06T03:47:46.063Z,99655.13
2023-05-06T03:50:49.310Z,99652.30
2023-05-06T03:53:54.744Z,99654.60
2023-05-06T03:56:58.005Z,99662.61
2023-05-06T04:00:01.594Z,99660.88
2023-05-06T04:03:07.012Z,99670.11
2023-05-06T04:06:16.704Z,99664.70
2023-05-06T04:09:19.564Z,99657.14
2023-05-06T04:12:23.781Z,99651.75
2023-05-06T04:15:26.748Z,99651.14
2023-05-06T04:18:30.712Z,99656.80
2023-05-06T04:21:40.417Z,99665.64
2023-05-06T04:24:45.729Z,99671.17
2023-05-06T04:27:49.594Z,99667.84
2023-05-06T04:30:53.111Z,99667.98
2023-05-06T04:33:57.634Z,99665.00
2023-05-06T04:37:01.000Z,99666.52
2023-05-06T04:40:13.895Z,99661.18
2023-05-06T04:43:18.421Z,99662.12
2023-05-06T04:46:23.186Z,99661.15
2023-05-06T04:49:26.844Z,99660.17
2023-05-06T04:52:30.587Z,99661.28
2023-05-06T04:55:34.509Z,99663.16
2023-05-06T04:58:37.683Z,99658.70
2023-05-06T05:01:40.512Z,99650.95
2023-05-06T05:04:44.177Z,99658.98
2023-05-06T05:07:47.071Z,99658.11
2023-05-06T05:10:50.302Z,99652.48
2023-05-06T05:13:57.118Z,99647.52
2023-05-06T05:17:00.791Z,99644.69
2023-05-06T05:20:05.791Z,99644.86
2023-05-06T05:23:08.551Z,99631.31
2023-05-06T05:26:13.115Z,99622.30
2023-05-06T05:29:16.355Z,99627.55
2023-05-06T05:32:20.175Z,99621.98
2023-05-06T05:35:23.137Z,99622.20
2023-05-06T05:38:27.545Z,99621.88
2023-05-06T05:41:30.428Z,99621.55
2023-05-06T05:44:33.494Z,99620.62
2023-05-06T05:47:36.744Z,99621.77
2023-05-06T05:50:39.791Z,99619.64
2023-05-06T05:53:43.079Z,99619.15
2023-05-06T05:56:46.442Z,99620.12
2023-05-06T05:59:49.820Z,99622.43
2023-05-06T06:02:52.897Z,99619.86
2023-05-06T06:05:56.394Z,99615.73
2023-05-06T06:09:00.669Z,99607.95
2023-05-06T06:12:04.075Z,99606.20
2023-05-06T06:15:09.025Z,99599.96
2023-05-06T06:18:12.995Z,99604.11
2023-05-06T06:21:15.802Z,99610.41
2023-05-06T06:24:18.561Z,99607.89
2023-05-06T06:27:21.342Z,99601.77
2023-05-06T06:30:24.918Z,99595.35
2023-05-06T06:33:27.924Z,99596.80
2023-05-06T06:36:31.594Z,99590.87
2023-05-06T06:39:34.335Z,99598.45
2023-05-06T06:42:37.878Z,99594.11
2023-05-06T06:45:59.646Z,99583.91
2023-05-06T06:49:02.415Z,99587.50
2023-05-06T06:52:06.062Z,99590.18
2023-05-06T06:55:09.738Z,99586.49
2023-05-06T06:58:12.898Z,99588.29
2023-05-06T07:01:15.694Z,99583.94
2023-05-06T07:04:18.641Z,99576.81
2023-05-06T07:07:21.458Z,99587.08
2023-05-06T07:10:24.230Z,99581.16
2023-05-06T07:13:27.267Z,99588.05
2023-05-06T07:16:30.022Z,99591.64
2023-05-06T07:19:32.972Z,99594.37
2023-05-06T07:22:35.875Z,99592.96
2023-05-06T07:25:38.618Z,99593.52
2023-05-06T07:28:41.335Z,99590.08
2023-05-06T07:31:44.111Z,99593.59
2023-05-06T07:34:46.896Z,99589.09
2023-05-06T07:37:49.645Z,99577.13
2023-05-06T07:40:53.020Z,99574.25
2023-05-06T07:43:56.001Z,99575.61
2023-05-06T07:46:58.950Z,99577.10
2023-05-06T07:50:02.229Z,99581.76
2023-05-06T07:53:05.567Z,99577.31
2023-05-06T07:56:08.426Z,99580.23
2023-05-06T07:59:11.891Z,99584.11
2023-05-06T08:02:15.289Z,99579.77
2023-05-06T08:05:18.538Z,99581.61
2023-05-06T08:08:23.100Z,99582.33
2023-05-06T08:11:26.032Z,99593.33
2023-05-06T08:14:28.851Z,99586.98
2023-05-06T08:17:31.691Z,99584.35
2023-05-06T08:20:34.444Z,99584.73
2023-05-06T08:23:37.462Z,99584.49
2023-05-06T08:26:40.960Z,99589.19
2023-05-06T08:29:43.682Z,99582.46
2023-05-06T08:32:46.813Z,99579.77
2023-05-06T08:35:50.811Z,99581.57
2023-05-06T08:38:53.732Z,99584.46
2023-05-06T08:41:58.208Z,99580.63
2023-05-06T08:45:01.074Z,99571.65
2023-05-06T08:48:04.040Z,99568.19
2023-05-06T08:51:08.596Z,99577.61
2023-05-06T08:54:12.973Z,99568.06
2023-05-06T08:57:16.784Z,99559.95
2023-05-06T09:00:25.219Z,99557.30
2023-05-06T09:03:30.030Z,99559.53
2023-05-06T09:06:34.353Z,99569.34
2023-05-06T09:09:37.187Z,99569.06
2023-05-06T09:12:40.641Z,99565.89
2023-05-06T09:15:47.250Z,99571.17
2023-05-06T09:18:49.976Z,99566.89
2023-05-06T09:21:52.864Z,99562.72
2023-05-06T09:24:57.310Z,99568.35
2023-05-06T09:28:05.235Z,99562.84
2023-05-06T09:31:07.996Z,99562.02
2023-05-06T09:34:11.698Z,99564.41
2023-05-06T09:37:14.517Z,99572.95
2023-05-06T09:40:17.396Z,99558.91
2023-05-06T09:43:21.080Z,99557.10
2023-05-06T09:46:25.828Z,99542.35
2023-05-06T09:49:29.625Z,99535.30
2023-05-06T09:52:32.415Z,99528.33
2023-05-06T09:55:36.314Z,99528.77
2023-05-06T09:58:39.586Z,99530.33
2023-05-06T10:01:42.450Z,99515.83
2023-05-06T10:04:48.557Z,99507.40
2023-05-06T10:07:53.412Z,99503.36
2023-05-06T10:10:57.150Z,99501.83
2023-05-06T10:14:01.352Z,99504.35
2023-05-06T10:17:11.650Z,99502.16
2023-05-06T10:20:15.144Z,99499.58
2023-05-06T10:23:27.032Z,99499.11
2023-05-06T10:26:31.578Z,99507.61
2023-05-06T10:29:37.563Z,99496.11
2023-05-06T10:32:43.309Z,99497.79
2023-05-06T10:36:08.038Z,99501.27
2023-05-06T10:39:14.335Z,99496.20
2023-05-06T10:42:17.500Z,99499.48
2023-05-06T10:45:20.600Z,99502.20
2023-05-06T10:48:23.404Z,99499.54
2023-05-06T10:51:28.382Z,99499.09
2023-05-06T10:54:31.255Z,99495.66
2023-05-06T10:57:41.203Z,99497.88
2023-05-06T11:00:54.538Z,99498.42
2023-05-06T11:03:57.938Z,99498.50
2023-05-06T11:07:12.523Z,99488.05
2023-05-06T11:10:15.382Z,99495.98
2023-05-06T11:13:29.779Z,99493.21
2023-05-06T11:16:49.993Z,99482.80
2023-05-06T11:20:19.780Z,99485.53
2023-05-06T11:23:22.662Z,99485.25
2023-05-06T11:26:25.424Z,99488.77
2023-05-06T11:29:28.193Z,99489.39
2023-05-06T11:32:33.147Z,99490.35
2023-05-06T11:35:39.861Z,99486.27
2023-05-06T11:38:46.919Z,99485.39
2023-05-06T11:41:50.321Z,99490.21
2023-05-06T11:45:00.551Z,99491.42
2023-05-06T11:48:03.505Z,99494.84
2023-05-06T11:51:07.554Z,99492.77
2023-05-06T11:54:10.935Z,99495.90
2023-05-06T11:57:14.055Z,99489.27
2023-05-06T12:00:18.795Z,99493.40
2023-05-06T12:03:23.620Z,99487.52
2023-05-06T12:06:35.123Z,99475.77
2023-05-06T12:09:44.049Z,99476.57
2023-05-06T12:12:47.241Z,99474.11
2023-05-06T12:15:51.195Z,99464.74
2023-05-06T12:18:54.934Z,99467.87
2023-05-06T12:22:15.300Z,99467.96
2023-05-06T12:25:18.676Z,99472.05
2023-05-06T12:28:22.890Z,99479.66
2023-05-06T12:31:26.248Z,99492.70
2023-05-06T12:34:40.522Z,99495.45
2023-05-06T12:37:43.410Z,99482.57
2023-05-06T12:40:53.896Z,99476.80
2023-05-06T12:43:56.704Z,99485.45
2023-05-06T12:47:03.672Z,99486.30
2023-05-06T12:50:06.841Z,99480.20
2023-05-06T12:53:13.364Z,99484.05
2023-05-06T12:56:16.632Z,99485.67
2023-05-06T12:59:19.378Z,99481.73
2023-05-06T13:02:22.185Z,99475.54
2023-05-06T13:05:25.157Z,99476.71
2023-05-06T13:08:28.609Z,99479.64
2023-05-06T13:11:31.800Z,99476.96
2023-05-06T13:14:35.584Z,99478.08
2023-05-06T13:17:39.828Z,99474.48
2023-05-06T13:20:42.712Z,99460.36
2023-05-06T13:23:47.883Z,99463.77
2023-05-06T13:26:50.841Z,99459.95
2023-05-06T13:29:53.657Z,99463.09
2023-05-06T13:32:56.470Z,99458.61
2023-05-06T13:35:59.289Z,99469.70
2023-05-06T13:39:02.044Z,99474.04
2023-05-06T13:42:07.431Z,99473.92
2023-05-06T13:45:11.473Z,99467.00
2023-05-06T13:48:14.705Z,99462.25
2023-05-06T13:51:17.463Z,99458.55
2023-05-06T13:54:20.345Z,99457.73
2023-05-06T13:57:25.507Z,99454.35
2023-05-06T14:00:28.316Z,99447.48
2023-05-06T14:03:31.020Z,99453.27
2023-05-06T14:06:33.976Z,99444.05
2023-05-06T14:09:36.717Z,99439.23
2023-05-06T14:12:39.718Z,99437.28
2023-05-06T14:15:42.626Z,99429.09
2023-05-06T14:18:45.395Z,99427.79
2023-05-06T14:21:48.135Z,99421.46
2023-05-06T14:24:51.135Z,99412.14
2023-05-06T14:27:55.047Z,99412.63
2023-05-06T14:30:58.415Z,99403.20
2023-05-06T14:34:02.189Z,99410.33
2023-05-06T14:37:05.415Z,99406.02
2023-05-06T14:40:10.053Z,99406.45
2023-05-06T14:43:12.785Z,99407.38
2023-05-06T14:46:16.243Z,99404.38
2023-05-06T14:49:19.298Z,99408.13
2023-05-06T14:52:22.382Z,99406.71
2023-05-06T14:55:25.918Z,99408.07
2023-05-06T14:58:28.631Z,99413.04
2023-05-06T15:01:33.651Z,99416.56
2023-05-06T15:04:37.018Z,99430.73
2023-05-06T15:07:39.874Z,99430.77
2023-05-06T15:10:42.875Z,99436.33
2023-05-06T15:13:45.726Z,99445.80
2023-05-06T15:16:48.570Z,99442.00
2023-05-06T15:19:51.788Z,99447.66
2023-05-06T15:22:54.542Z,99455.50
2023-05-06T15:25:58.134Z,99470.10
2023-05-06T15:29:01.015Z,99473.86
2023-05-06T15:32:04.145Z,99473.48
2023-05-06T15:35:07.524Z,99483.73
2023-05-06T15:38:11.053Z,99486.95
2023-05-06T15:41:13.903Z,99477.02
2023-05-06T15:44:16.748Z,99476.89
2023-05-06T15:47:19.860Z,99489.96
2023-05-06T15:50:32.886Z,99495.52
2023-05-06T15:53:40.735Z,99494.91
2023-05-06T15:56:43.478Z,99500.02
2023-05-06T15:59:46.209Z,99488.31
2023-05-06T16:02:49.385Z,99489.89
2023-05-06T16:05:58.018Z,99487.63
2023-05-06T16:09:01.042Z,99483.83
2023-05-06T16:12:04.898Z,99487.58
2023-05-06T16:15:08.613Z,99489.87
2023-05-06T16:18:11.446Z,99487.79
2023-05-06T16:21:14.248Z,99489.30
2023-05-06T16:24:16.981Z,99488.38
2023-05-06T16:27:19.868Z,99493.11
2023-05-06T16:30:23.199Z,99489.50
2023-05-06T16:33:25.996Z,99496.85
2023-05-06T16:36:28.852Z,99502.90
2023-05-06T16:39:31.682Z,99497.66
2023-05-06T16:42:34.533Z,99511.06
2023-05-06T16:45:38.270Z,99502.50
2023-05-06T16:48:41.258Z,99504.14
2023-05-06T16:51:44.030Z,99501.83
2023-05-06T16:54:46.943Z,99498.89
2023-05-06T16:57:50.205Z,99496.60
2023-05-06T17:00:54.431Z,99497.52
2023-05-06T17:03:57.171Z,99492.98
2023-05-06T17:06:59.927Z,99493.20
2023-05-06T17:10:02.812Z,99489.98
2023-05-06T17:13:05.922Z,99494.86
2023-05-06T17:16:08.952Z,99509.34
2023-05-06T17:19:12.272Z,99505.30
2023-05-06T17:22:16.176Z,99510.80
2023-05-06T17:25:18.983Z,99522.55
2023-05-06T17:28:21.933Z,99528.23
2023-05-06T17:31:25.016Z,99530.73
2023-05-06T17:34:27.858Z,99536.39
2023-05-06T17:37:31.592Z,99538.90
2023-05-06T17:40:34.625Z,99540.91
2023-05-06T17:43:37.421Z,99552.73
2023-05-06T17:46:40.248Z,99553.77
2023-05-06T17:49:43.177Z,99566.40
2023-05-06T17:52:51.109Z,99563.04
2023-05-06T17:55:54.057Z,99562.02
2023-05-06T17:59:01.259Z,99560.75
2023-05-06T18:02:04.354Z,99563.04
2023-05-06T18:05:08.420Z,99564.79
2023-05-06T18:08:11.593Z,99567.30
2023-05-06T18:11:15.939Z,99570.46
2023-05-06T18:14:18.670Z,99579.98
2023-05-06T18:17:21.805Z,99572.74
2023-05-06T18:20:24.873Z,99576.01
2023-05-06T18:23:29.465Z,99582.70
2023-05-06T18:26:44.120Z,99577.57
2023-05-06T18:29:48.467Z,99578.84
2023-05-06T18:32:52.884Z,99582.02
2023-05-06T18:35:57.223Z,99585.62
2023-05-06T18:39:00.117Z,99585.89
2023-05-06T18:42:03.958Z,99593.17
2023-05-06T18:45:07.602Z,99585.88
2023-05-06T18:48:11.085Z,99582.71
2023-05-06T18:51:16.213Z,99585.15
2023-05-06T18:54:18.978Z,99570.61
2023-05-06T18:57:21.754Z,99570.05
2023-05-06T19:00:26.420Z,99572.89
2023-05-06T19:03:30.559Z,99575.21
2023-05-06T19:06:33.650Z,99577.60
2023-05-06T19:09:37.278Z,99584.34
2023-05-06T19:12:41.598Z,99579.75
2023-05-06T19:15:44.496Z,99583.00
2023-05-06T19:18:47.913Z,99589.20
2023-05-06T19:21:50.799Z,99585.56
2023-05-06T19:24:53.554Z,99589.79
2023-05-06T19:27:56.439Z,99601.29
2023-05-06T19:30:59.401Z,99599.16
2023-05-06T19:34:02.298Z,99601.94
2023-05-06T19:37:05.093Z,99601.48
2023-05-06T19:40:09.152Z,99594.42
2023-05-06T19:43:12.015Z,99598.05
2023-05-06T19:46:16.096Z,99597.61
2023-05-06T19:49:18.849Z,99588.99
2023-05-06T19:52:22.107Z,99586.59
2023-05-06T19:55:25.587Z,99587.57
2023-05-06T19:58:28.340Z,99588.33
2023-05-06T20:01:31.285Z,99589.78
2023-05-06T20:04:34.755Z,99599.09
2023-05-06T20:07:38.261Z,99595.81
2023-05-06T20:10:41.112Z,99594.60
2023-05-06T20:13:43.868Z,99599.55
2023-05-06T20:16:46.636Z,99594.39
2023-05-06T20:19:50.037Z,99589.80
2023-05-06T20:22:52.896Z,99581.13
2023-05-06T20:25:55.878Z,99579.58
2023-05-06T20:28:59.093Z,99579.48
2023-05-06T20:32:02.166Z,99584.14
2023-05-06T20:35:06.333Z,99581.58
2023-05-06T20:38:09.415Z,99582.69
2023-05-06T20:41:12.158Z,99579.25
2023-05-06T20:44:14.881Z,99586.52
2023-05-06T20:47:18.401Z,99594.45
2023-05-06T20:50:21.225Z,99590.87
2023-05-06T20:53:24.307Z,99592.98
2023-05-06T20:56:27.826Z,99595.20
2023-05-06T20:59:30.611Z,99591.50
2023-05-06T21:02:35.942Z,99593.40
2023-05-06T21:05:43.248Z,99596.21
2023-05-06T21:08:46.729Z,99603.61
2023-05-06T21:11:49.589Z,99607.52
2023-05-06T21:14:52.385Z,99608.38
2023-05-06T21:17:55.226Z,99611.14
2023-05-06T21:20:58.148Z,99617.24
2023-05-06T21:24:01.218Z,99616.20
2023-05-06T21:27:04.439Z,99618.17
2023-05-06T21:30:08.970Z,99623.78
2023-05-06T21:33:11.763Z,99624.63
2023-05-06T21:36:14.651Z,99622.13
2023-05-06T21:39:17.379Z,99621.91
2023-05-06T21:42:20.586Z,99624.45
2023-05-06T21:45:23.321Z,99627.86
2023-05-06T21:48:26.226Z,99635.08
2023-05-06T21:51:32.584Z,99637.53
2023-05-06T21:54:35.440Z,99635.08
2023-05-06T21:57:38.854Z,99634.31
2023-05-06T22:00:41.833Z,99624.18
2023-05-06T22:03:46.018Z,99621.02
2023-05-06T22:06:48.918Z,99618.27
2023-05-06T22:09:51.728Z,99619.46
2023-05-06T22:12:54.546Z,99627.55
2023-05-06T22:15:57.861Z,99626.27
2023-05-06T22:19:02.135Z,99633.96
2023-05-06T22:22:04.953Z,99633.57
2023-05-06T22:25:08.687Z,99641.45
2023-05-06T22:28:12.020Z,99637.54
2023-05-06T22:31:15.626Z,99634.59
2023-05-06T22:34:18.405Z,99638.99
2023-05-06T22:37:21.444Z,99639.27
2023-05-06T22:40:24.454Z,99634.46
2023-05-06T22:43:27.211Z,99633.30
2023-05-06T22:46:30.328Z,99630.73
2023-05-06T22:49:33.205Z,99628.16
2023-05-06T22:52:35.910Z,99632.45
2023-05-06T22:55:40.800Z,99632.66
2023-05-06T22:58:43.598Z,99633.67
2023-05-06T23:01:46.542Z,99635.34
2023-05-06T23:04:49.490Z,99631.41
2023-05-06T23:07:52.192Z,99633.74
2023-05-06T23:10:55.158Z,99636.74
2023-05-06T23:13:57.867Z,99630.36
2023-05-06T23:17:00.728Z,99633.87
2023-05-06T23:20:04.475Z,99639.71
2023-05-06T23:23:10.607Z,99641.33
2023-05-06T23:26:13.334Z,99644.10
2023-05-06T23:29:16.152Z,99642.23
2023-05-06T23:32:18.860Z,99644.95
2023-05-06T23:35:21.572Z,99649.62
2023-05-06T23:38:24.427Z,99643.83
2023-05-06T23:41:27.222Z,99645.60
2023-05-06T23:44:30.197Z,99642.16
2023-05-06T23:47:32.961Z,99645.04
2023-05-06T23:50:35.801Z,99645.59
2023-05-06T23:53:38.516Z,99648.30
2023-05-06T23:56:41.656Z,99650.48
2023-05-06T23:59:44.405Z,99645.47
